Airfield :
LOGIN :

Register | Disclaimer

   EN    FR    IT 

 










Legend :    VFR   Marginal VFR   IFR   Intensive IFR   Very Intensive IFR
Visi :
Ceiling :
>= 8 km
>= 3000ft
5 to 8 km
1000 to 3000 ft
1500m to 5 km
500 to 1000 ft
800 to 1500m
200 to 500 ft
< 800m
< 200 ft
Symbols :   Thunderstorms  Fog  Heavy snow  Heavy precipitations  Wind > 20 kt
SIGMETs :     Misc.  Thunderstorms  Icing  Turbulence  Mountain Waves  Volcanic Ashes






- Airport Elevation : 33 ft
- IATA code : MHZ


EGUN - RAF Mildenhall

CURRENT METAR :
  • 181556Z AUTO 23006KT 9999 BKN046 06/06 A3004 RMK AO2 SLP176 T00570057 FZRANO $

EXPIRED METARs :
  • 181546Z AUTO 24006KT 9999 BKN046 06/06 A3004 RMK AO2 SLP176 FZRANO $
  • 181456Z AUTO 24009KT 9999 CLR 06/06 A3005 RMK AO2 SLP179 T00580058 57022 FZRANO $
  • 181356Z AUTO 24008KT 9999 CLR 06/06 A3007 RMK AO2 SLP186 T00580058 FZRANO $

TAF TAF EGUN
Valid from the 18 at 12:00 until the 19 at 18:00 UTC


181200Z 1812/1918 24010G20KT 9999 SCT030 QNH3003INS
BECMG 1818/1819 20010G20KT 9999 BKN010 QNH2994INS
BECMG 1820/1821 20010G25KT 6000 RA BKN010 QNH2980INS
TEMPO 1821/1824 BKN007
BECMG 1823/1824 22020G35KT 6000 RA BKN007 QNH2960INS
BECMG 1906/1907 25020G35KT 9999 NSW BKN015 QNH2945INS TX10/1906Z TN05/1812Z



MET'MAP, your aeronautical weather chart ! - Copyright ORBIFLY December 2007 - Disclaimer

ORBIFLY MET'MAP TEAM :

Programming & Development : Alexandra Zaïnal
Concept & original design : Baudouin d'Aumeries
Assistance for programming : Marc-Olivier Méhu
Technical & hardware support : Manuel Goepfert

Contact : metmap@orbifly.com




SOURCES & CREDITS :

   NOAA